3IN6 weather

Holloway Field
New Washington, Indiana, United States

Public forecast

Using degrees Fahrenheit for public forecast. Weather courtesy of forecast.io.

METAR (pilot weather report)

Closest report is Madison Municipal Airport, 10.4 nm (19.3 km) N. Retrieved 2019/03/22 07:35 UTC (10 minutes ago):

KIMS 220735Z AUTO 24005KT 10SM CLR 03/02 A3001 RMK AO1

TAF (pilot weather forecast)

Closest forecast is Louisville International Standiford Field, 27.1 nm (50.2 km) SSW. Retrieved 2019/03/22 06:22 UTC (1 hour ago):

TAF KSDF 220520Z 2206/2312 28009KT P6SM FEW035 FM221600 31014G22KT P6SM BKN040 FM222300 33008KT P6SM FEW050 FM230600 01006KT P6SM SKC